sensor_id;sensor_type;location;lat;lon;timestamp;pressure;altitude;pressure_sealevel;temperature;humidity
45357;BME280;31092;51.924;21.448;2023-05-01T00:02:17;100862.50;;;-0.36;100.00
45357;BME280;31092;51.924;21.448;2023-05-01T00:04:42;100868.44;;;-0.31;100.00
45357;BME280;31092;51.924;21.448;2023-05-01T00:07:08;100877.22;;;-0.31;100.00
45357;BME280;31092;51.924;21.448;2023-05-01T00:09:33;100869.44;;;-0.34;100.00
45357;BME280;31092;51.924;21.448;2023-05-01T00:11:59;100875.16;;;-0.41;100.00
45357;BME280;31092;51.924;21.448;2023-05-01T00:14:24;100876.41;;;-0.49;100.00
45357;BME280;31092;51.924;21.448;2023-05-01T00:16:49;100880.16;;;-0.53;100.00
45357;BME280;31092;51.924;21.448;2023-05-01T00:19:15;100879.28;;;-0.53;100.00
45357;BME280;31092;51.924;21.448;2023-05-01T00:21:44;100888.16;;;-0.54;100.00
45357;BME280;31092;51.924;21.448;2023-05-01T00:24:10;100892.59;;;-0.55;100.00
45357;BME280;31092;51.924;21.448;2023-05-01T00:26:35;100896.09;;;-0.54;100.00
45357;BME280;31092;51.924;21.448;2023-05-01T00:29:00;100900.38;;;-0.52;100.00
45357;BME280;31092;51.924;21.448;2023-05-01T00:31:26;100896.03;;;-0.53;100.00
45357;BME280;31092;51.924;21.448;2023-05-01T00:33:51;100901.22;;;-0.51;100.00
45357;BME280;31092;51.924;21.448;2023-05-01T00:36:17;100898.72;;;-0.54;100.00
45357;BME280;31092;51.924;21.448;2023-05-01T00:38:42;100894.69;;;-0.61;100.00
45357;BME280;31092;51.924;21.448;2023-05-01T00:41:08;100901.00;;;-0.64;100.00
45357;BME280;31092;51.924;21.448;2023-05-01T00:43:33;100899.38;;;-0.66;100.00
45357;BME280;31092;51.924;21.448;2023-05-01T00:45:59;100905.41;;;-0.64;100.00
45357;BME280;31092;51.924;21.448;2023-05-01T00:48:24;100908.16;;;-0.66;100.00
45357;BME280;31092;51.924;21.448;2023-05-01T00:50:50;100909.25;;;-0.70;100.00
45357;BME280;31092;51.924;21.448;2023-05-01T00:53:16;100911.25;;;-0.75;100.00
45357;BME280;31092;51.924;21.448;2023-05-01T00:55:42;100910.78;;;-0.83;100.00
45357;BME280;31092;51.924;21.448;2023-05-01T00:58:09;100907.75;;;-0.93;100.00
45357;BME280;31092;51.924;21.448;2023-05-01T01:00:35;100918.50;;;-0.96;100.00
45357;BME280;31092;51.924;21.448;2023-05-01T01:03:01;100915.69;;;-0.93;100.00
45357;BME280;31092;51.924;21.448;2023-05-01T01:05:26;100912.97;;;-0.91;100.00
45357;BME280;31092;51.924;21.448;2023-05-01T01:08:10;100910.47;;;-0.94;100.00
45357;BME280;31092;51.924;21.448;2023-05-01T01:10:45;100915.22;;;-1.01;100.00
45357;BME280;31092;51.924;21.448;2023-05-01T01:15:56;100907.56;;;-1.07;100.00
45357;BME280;31092;51.924;21.448;2023-05-01T01:18:29;100921.81;;;-1.10;100.00
45357;BME280;31092;51.924;21.448;2023-05-01T01:21:03;100916.72;;;-1.14;100.00
45357;BME280;31092;51.924;21.448;2023-05-01T01:28:33;100921.63;;;-1.24;100.00
45357;BME280;31092;51.924;21.448;2023-05-01T01:31:09;100916.13;;;-1.19;100.00
45357;BME280;31092;51.924;21.448;2023-05-01T01:39:20;100922.34;;;-1.21;100.00
45357;BME280;31092;51.924;21.448;2023-05-01T01:41:48;100916.16;;;-1.21;100.00
45357;BME280;31092;51.924;21.448;2023-05-01T01:44:16;100921.53;;;-1.23;100.00
45357;BME280;31092;51.924;21.448;2023-05-01T01:46:45;100913.75;;;-1.26;100.00
45357;BME280;31092;51.924;21.448;2023-05-01T01:49:14;100925.41;;;-1.30;100.00
45357;BME280;31092;51.924;21.448;2023-05-01T01:51:41;100925.31;;;-1.28;100.00
45357;BME280;31092;51.924;21.448;2023-05-01T01:54:06;100927.91;;;-1.27;100.00
45357;BME280;31092;51.924;21.448;2023-05-01T01:56:33;100923.63;;;-1.29;100.00
45357;BME280;31092;51.924;21.448;2023-05-01T01:59:00;100930.78;;;-1.31;100.00
45357;BME280;31092;51.924;21.448;2023-05-01T02:01:26;100923.13;;;-1.37;100.00
45357;BME280;31092;51.924;21.448;2023-05-01T02:03:53;100930.41;;;-1.42;100.00
45357;BME280;31092;51.924;21.448;2023-05-01T02:06:19;100924.34;;;-1.45;100.00
45357;BME280;31092;51.924;21.448;2023-05-01T02:08:45;100927.06;;;-1.46;100.00
45357;BME280;31092;51.924;21.448;2023-05-01T02:11:12;100922.66;;;-1.46;100.00
45357;BME280;31092;51.924;21.448;2023-05-01T02:13:39;100918.22;;;-1.45;100.00
45357;BME280;31092;51.924;21.448;2023-05-01T02:16:06;100924.41;;;-1.46;100.00
45357;BME280;31092;51.924;21.448;2023-05-01T02:18:32;100914.88;;;-1.49;100.00
45357;BME280;31092;51.924;21.448;2023-05-01T02:20:58;100921.22;;;-1.53;100.00
45357;BME280;31092;51.924;21.448;2023-05-01T02:23:27;100920.44;;;-1.55;100.00
45357;BME280;31092;51.924;21.448;2023-05-01T02:25:55;100915.16;;;-1.55;100.00
45357;BME280;31092;51.924;21.448;2023-05-01T02:28:22;100920.34;;;-1.53;100.00
45357;BME280;31092;51.924;21.448;2023-05-01T02:30:48;100913.34;;;-1.54;100.00
45357;BME280;31092;51.924;21.448;2023-05-01T02:33:13;100921.41;;;-1.57;100.00
45357;BME280;31092;51.924;21.448;2023-05-01T02:35:42;100918.00;;;-1.59;100.00
45357;BME280;31092;51.924;21.448;2023-05-01T02:38:11;100920.66;;;-1.59;100.00
45357;BME280;31092;51.924;21.448;2023-05-01T02:40:37;100914.56;;;-1.61;100.00
45357;BME280;31092;51.924;21.448;2023-05-01T02:43:03;100914.72;;;-1.64;100.00
45357;BME280;31092;51.924;21.448;2023-05-01T02:45:30;100915.44;;;-1.61;100.00
45357;BME280;31092;51.924;21.448;2023-05-01T02:48:00;100911.09;;;-1.62;100.00
45357;BME280;31092;51.924;21.448;2023-05-01T02:50:26;100922.38;;;-1.58;100.00
45357;BME280;31092;51.924;21.448;2023-05-01T02:52:51;100921.28;;;-1.54;100.00
45357;BME280;31092;51.924;21.448;2023-05-01T02:55:18;100915.06;;;-1.53;100.00
45357;BME280;31092;51.924;21.448;2023-05-01T02:57:43;100917.06;;;-1.58;100.00
45357;BME280;31092;51.924;21.448;2023-05-01T03:00:08;100921.88;;;-1.66;100.00
45357;BME280;31092;51.924;21.448;2023-05-01T03:02:38;100918.56;;;-1.72;100.00
45357;BME280;31092;51.924;21.448;2023-05-01T03:05:03;100917.72;;;-1.72;100.00
45357;BME280;31092;51.924;21.448;2023-05-01T03:07:28;100916.94;;;-1.74;100.00
45357;BME280;31092;51.924;21.448;2023-05-01T03:09:59;100920.34;;;-1.72;100.00
45357;BME280;31092;51.924;21.448;2023-05-01T03:12:24;100920.50;;;-1.75;100.00
45357;BME280;31092;51.924;21.448;2023-05-01T03:14:50;100932.94;;;-1.77;100.00
45357;BME280;31092;51.924;21.448;2023-05-01T03:17:15;100923.84;;;-1.72;100.00
45357;BME280;31092;51.924;21.448;2023-05-01T03:19:40;100923.78;;;-1.70;100.00
45357;BME280;31092;51.924;21.448;2023-05-01T03:22:06;100918.44;;;-1.69;100.00
45357;BME280;31092;51.924;21.448;2023-05-01T03:24:31;100914.09;;;-1.70;100.00
45357;BME280;31092;51.924;21.448;2023-05-01T03:26:57;100924.44;;;-1.65;100.00
45357;BME280;31092;51.924;21.448;2023-05-01T03:29:23;100915.56;;;-1.64;100.00
45357;BME280;31092;51.924;21.448;2023-05-01T03:31:48;100923.34;;;-1.61;100.00
45357;BME280;31092;51.924;21.448;2023-05-01T03:34:13;100922.50;;;-1.61;100.00
45357;BME280;31092;51.924;21.448;2023-05-01T03:36:39;100912.88;;;-1.62;100.00
45357;BME280;31092;51.924;21.448;2023-05-01T03:39:04;100914.66;;;-1.63;100.00
45357;BME280;31092;51.924;21.448;2023-05-01T03:41:30;100919.81;;;-1.60;100.00
45357;BME280;31092;51.924;21.448;2023-05-01T03:43:55;100915.28;;;-1.58;100.00
45357;BME280;31092;51.924;21.448;2023-05-01T03:46:21;100916.78;;;-1.52;100.00
45357;BME280;31092;51.924;21.448;2023-05-01T03:48:46;100919.00;;;-1.43;100.00
45357;BME280;31092;51.924;21.448;2023-05-01T03:51:11;100920.34;;;-1.34;100.00
45357;BME280;31092;51.924;21.448;2023-05-01T03:53:37;100913.75;;;-1.26;100.00
45357;BME280;31092;51.924;21.448;2023-05-01T03:56:02;100916.03;;;-1.18;100.00
45357;BME280;31092;51.924;21.448;2023-05-01T03:58:28;100912.16;;;-1.11;100.00
45357;BME280;31092;51.924;21.448;2023-05-01T04:00:54;100914.34;;;-1.02;100.00
45357;BME280;31092;51.924;21.448;2023-05-01T04:03:21;100919.25;;;-0.94;100.00
45357;BME280;31092;51.924;21.448;2023-05-01T04:05:46;100914.53;;;-0.87;100.00
45357;BME280;31092;51.924;21.448;2023-05-01T04:08:11;100911.50;;;-0.80;100.00
45357;BME280;31092;51.924;21.448;2023-05-01T04:10:37;100911.25;;;-0.75;100.00
45357;BME280;31092;51.924;21.448;2023-05-01T04:13:02;100914.44;;;-0.68;100.00
45357;BME280;31092;51.924;21.448;2023-05-01T04:15:27;100912.34;;;-0.62;100.00
45357;BME280;31092;51.924;21.448;2023-05-01T04:17:53;100905.97;;;-0.58;100.00
45357;BME280;31092;51.924;21.448;2023-05-01T04:20:20;100912.66;;;-0.51;100.00
45357;BME280;31092;51.924;21.448;2023-05-01T04:22:46;100918.44;;;-0.42;100.00
45357;BME280;31092;51.924;21.448;2023-05-01T04:25:11;100916.84;;;-0.29;100.00
45357;BME280;31092;51.924;21.448;2023-05-01T04:27:37;100912.78;;;-0.19;100.00
45357;BME280;31092;51.924;21.448;2023-05-01T04:30:02;100911.28;;;-0.07;100.00
45357;BME280;31092;51.924;21.448;2023-05-01T04:32:27;100914.28;;;0.03;100.00
45357;BME280;31092;51.924;21.448;2023-05-01T04:34:53;100913.13;;;0.08;100.00
45357;BME280;31092;51.924;21.448;2023-05-01T04:37:18;100911.75;;;0.17;100.00
45357;BME280;31092;51.924;21.448;2023-05-01T04:39:43;100911.28;;;0.26;100.00
45357;BME280;31092;51.924;21.448;2023-05-01T04:42:09;100904.59;;;0.35;100.00
45357;BME280;31092;51.924;21.448;2023-05-01T04:44:34;100909.41;;;0.44;100.00
45357;BME280;31092;51.924;21.448;2023-05-01T04:47:01;100910.63;;;0.54;100.00
45357;BME280;31092;51.924;21.448;2023-05-01T04:49:27;100910.00;;;0.65;100.00
45357;BME280;31092;51.924;21.448;2023-05-01T04:51:52;100911.28;;;0.74;100.00
45357;BME280;31092;51.924;21.448;2023-05-01T04:54:18;100918.47;;;0.87;100.00
45357;BME280;31092;51.924;21.448;2023-05-01T04:56:43;100909.53;;;1.04;100.00
45357;BME280;31092;51.924;21.448;2023-05-01T04:59:08;100909.41;;;1.22;100.00
45357;BME280;31092;51.924;21.448;2023-05-01T05:01:34;100911.06;;;1.38;100.00
45357;BME280;31092;51.924;21.448;2023-05-01T05:03:59;100907.41;;;1.55;100.00
45357;BME280;31092;51.924;21.448;2023-05-01T05:06:24;100909.06;;;1.72;100.00
45357;BME280;31092;51.924;21.448;2023-05-01T05:08:50;100907.09;;;1.90;100.00
45357;BME280;31092;51.924;21.448;2023-05-01T05:11:18;100907.56;;;2.11;100.00
45357;BME280;31092;51.924;21.448;2023-05-01T05:13:44;100908.69;;;2.35;100.00
45357;BME280;31092;51.924;21.448;2023-05-01T05:16:10;100909.03;;;2.58;100.00
45357;BME280;31092;51.924;21.448;2023-05-01T05:18:35;100916.28;;;2.83;100.00
45357;BME280;31092;51.924;21.448;2023-05-01T05:21:04;100909.81;;;3.14;100.00
45357;BME280;31092;51.924;21.448;2023-05-01T05:23:30;100906.34;;;3.39;100.00
45357;BME280;31092;51.924;21.448;2023-05-01T05:25:55;100909.06;;;3.65;100.00
45357;BME280;31092;51.924;21.448;2023-05-01T05:28:22;100909.69;;;3.94;100.00
45357;BME280;31092;51.924;21.448;2023-05-01T05:30:47;100904.97;;;4.23;100.00
45357;BME280;31092;51.924;21.448;2023-05-01T05:33:13;100908.00;;;4.55;100.00
45357;BME280;31092;51.924;21.448;2023-05-01T05:35:38;100910.16;;;4.87;100.00
45357;BME280;31092;51.924;21.448;2023-05-01T05:38:04;100896.63;;;5.25;100.00
45357;BME280;31092;51.924;21.448;2023-05-01T05:40:29;100893.50;;;5.78;100.00
45357;BME280;31092;51.924;21.448;2023-05-01T05:42:55;100899.28;;;5.95;100.00
45357;BME280;31092;51.924;21.448;2023-05-01T05:45:21;100895.00;;;6.49;100.00
45357;BME280;31092;51.924;21.448;2023-05-01T05:47:47;100890.69;;;7.24;100.00
45357;BME280;31092;51.924;21.448;2023-05-01T05:50:12;100886.38;;;7.74;100.00
45357;BME280;31092;51.924;21.448;2023-05-01T05:52:38;100888.44;;;8.12;100.00
45357;BME280;31092;51.924;21.448;2023-05-01T05:55:03;100887.03;;;8.49;100.00
45357;BME280;31092;51.924;21.448;2023-05-01T05:57:29;100889.00;;;8.16;100.00
45357;BME280;31092;51.924;21.448;2023-05-01T05:59:54;100886.88;;;7.89;100.00
45357;BME280;31092;51.924;21.448;2023-05-01T06:02:19;100876.88;;;7.91;100.00
45357;BME280;31092;51.924;21.448;2023-05-01T06:04:45;100886.16;;;8.08;100.00
45357;BME280;31092;51.924;21.448;2023-05-01T06:07:10;100892.06;;;8.02;100.00
45357;BME280;31092;51.924;21.448;2023-05-01T06:09:35;100889.47;;;8.00;100.00
45357;BME280;31092;51.924;21.448;2023-05-01T06:12:01;100893.69;;;7.93;100.00
45357;BME280;31092;51.924;21.448;2023-05-01T06:14:28;100895.34;;;7.84;100.00
45357;BME280;31092;51.924;21.448;2023-05-01T06:16:53;100888.28;;;7.83;100.00
45357;BME280;31092;51.924;21.448;2023-05-01T06:19:18;100896.44;;;7.82;100.00
45357;BME280;31092;51.924;21.448;2023-05-01T06:21:44;100900.78;;;7.94;100.00
45357;BME280;31092;51.924;21.448;2023-05-01T06:24:09;100900.69;;;8.05;100.00
45357;BME280;31092;51.924;21.448;2023-05-01T06:26:35;100899.59;;;8.18;100.00
45357;BME280;31092;51.924;21.448;2023-05-01T06:29:00;100901.75;;;8.24;100.00
45357;BME280;31092;51.924;21.448;2023-05-01T06:31:25;100889.56;;;8.41;100.00
45357;BME280;31092;51.924;21.448;2023-05-01T06:33:51;100890.88;;;8.56;100.00
45357;BME280;31092;51.924;21.448;2023-05-01T06:36:16;100897.97;;;8.67;100.00
45357;BME280;31092;51.924;21.448;2023-05-01T06:38:42;100887.78;;;8.60;100.00
45357;BME280;31092;51.924;21.448;2023-05-01T06:41:12;100886.66;;;8.63;100.00
45357;BME280;31092;51.924;21.448;2023-05-01T06:43:38;100885.00;;;8.72;100.00
45357;BME280;31092;51.924;21.448;2023-05-01T06:46:03;100887.84;;;8.80;100.00
45357;BME280;31092;51.924;21.448;2023-05-01T06:48:28;100886.72;;;8.92;100.00
45357;BME280;31092;51.924;21.448;2023-05-01T06:50:54;100879.41;;;9.04;100.00
45357;BME280;31092;51.924;21.448;2023-05-01T06:53:19;100871.75;;;9.09;100.00
45357;BME280;31092;51.924;21.448;2023-05-01T06:55:45;100877.28;;;9.07;100.00
45357;BME280;31092;51.924;21.448;2023-05-01T06:58:10;100882.09;;;9.04;100.00
45357;BME280;31092;51.924;21.448;2023-05-01T07:00:36;100876.72;;;9.04;100.00
45357;BME280;31092;51.924;21.448;2023-05-01T07:03:01;100876.97;;;9.10;100.00
45357;BME280;31092;51.924;21.448;2023-05-01T07:05:28;100875.97;;;9.21;100.00
45357;BME280;31092;51.924;21.448;2023-05-01T07:07:53;100877.13;;;9.38;100.00
45357;BME280;31092;51.924;21.448;2023-05-01T07:10:19;100869.59;;;9.51;100.00
45357;BME280;31092;51.924;21.448;2023-05-01T07:12:45;100873.25;;;9.70;100.00
45357;BME280;31092;51.924;21.448;2023-05-01T07:15:11;100869.25;;;9.83;100.00
45357;BME280;31092;51.924;21.448;2023-05-01T07:17:38;100875.75;;;10.00;100.00
45357;BME280;31092;51.924;21.448;2023-05-01T07:20:03;100877.66;;;10.18;100.00
45357;BME280;31092;51.924;21.448;2023-05-01T07:22:29;100871.56;;;10.25;100.00
45357;BME280;31092;51.924;21.448;2023-05-01T07:24:54;100869.34;;;10.39;100.00
45357;BME280;31092;51.924;21.448;2023-05-01T07:27:20;100860.91;;;10.61;100.00
45357;BME280;31092;51.924;21.448;2023-05-01T07:29:45;100865.31;;;10.80;100.00
45357;BME280;31092;51.924;21.448;2023-05-01T07:32:14;100871.41;;;10.82;100.00
45357;BME280;31092;51.924;21.448;2023-05-01T07:34:40;100869.09;;;10.87;100.00
45357;BME280;31092;51.924;21.448;2023-05-01T07:37:06;100871.78;;;11.05;100.00
45357;BME280;31092;51.924;21.448;2023-05-01T07:39:31;100875.19;;;11.25;100.00
45357;BME280;31092;51.924;21.448;2023-05-01T07:41:56;100862.63;;;11.34;100.00
45357;BME280;31092;51.924;21.448;2023-05-01T07:44:22;100869.22;;;11.57;100.00
45357;BME280;31092;51.924;21.448;2023-05-01T07:46:47;100860.38;;;11.91;100.00
45357;BME280;31092;51.924;21.448;2023-05-01T07:49:13;100859.63;;;12.07;100.00
45357;BME280;31092;51.924;21.448;2023-05-01T07:51:38;100862.06;;;12.18;100.00
45357;BME280;31092;51.924;21.448;2023-05-01T07:54:03;100854.91;;;12.43;100.00
45357;BME280;31092;51.924;21.448;2023-05-01T07:56:29;100852.94;;;12.61;100.00
45357;BME280;31092;51.924;21.448;2023-05-01T07:58:55;100854.28;;;12.65;100.00
45357;BME280;31092;51.924;21.448;2023-05-01T08:01:20;100856.84;;;12.67;100.00
45357;BME280;31092;51.924;21.448;2023-05-01T08:03:45;100862.28;;;12.83;100.00
45357;BME280;31092;51.924;21.448;2023-05-01T08:06:11;100846.63;;;13.03;100.00
45357;BME280;31092;51.924;21.448;2023-05-01T08:08:36;100856.66;;;13.27;100.00
45357;BME280;31092;51.924;21.448;2023-05-01T08:11:01;100854.09;;;13.50;100.00
45357;BME280;31092;51.924;21.448;2023-05-01T08:13:27;100849.69;;;13.65;100.00
45357;BME280;31092;51.924;21.448;2023-05-01T08:15:52;100850.22;;;13.61;100.00
45357;BME280;31092;51.924;21.448;2023-05-01T08:18:18;100844.94;;;13.18;100.00
45357;BME280;31092;51.924;21.448;2023-05-01T08:20:46;100838.53;;;13.36;100.00
45357;BME280;31092;51.924;21.448;2023-05-01T08:23:14;100836.69;;;13.61;100.00
45357;BME280;31092;51.924;21.448;2023-05-01T08:25:40;100834.63;;;13.87;100.00
45357;BME280;31092;51.924;21.448;2023-05-01T08:28:06;100837.38;;;14.19;100.00
45357;BME280;31092;51.924;21.448;2023-05-01T08:30:31;100836.06;;;14.06;100.00
45357;BME280;31092;51.924;21.448;2023-05-01T08:33:02;100833.50;;;14.13;100.00
45357;BME280;31092;51.924;21.448;2023-05-01T08:35:36;100827.97;;;14.46;100.00
45357;BME280;31092;51.924;21.448;2023-05-01T08:38:02;100837.63;;;14.79;100.00
45357;BME280;31092;51.924;21.448;2023-05-01T08:40:30;100831.69;;;15.07;100.00
45357;BME280;31092;51.924;21.448;2023-05-01T08:42:55;100831.69;;;15.30;100.00
45357;BME280;31092;51.924;21.448;2023-05-01T08:45:22;100833.00;;;15.34;100.00
45357;BME280;31092;51.924;21.448;2023-05-01T08:47:48;100835.22;;;15.07;100.00
45357;BME280;31092;51.924;21.448;2023-05-01T08:50:13;100835.56;;;15.13;100.00
45357;BME280;31092;51.924;21.448;2023-05-01T08:52:40;100841.00;;;15.50;100.00
45357;BME280;31092;51.924;21.448;2023-05-01T08:55:07;100831.28;;;15.56;100.00
45357;BME280;31092;51.924;21.448;2023-05-01T08:57:34;100833.84;;;15.35;100.00
45357;BME280;31092;51.924;21.448;2023-05-01T09:00:00;100825.63;;;15.05;99.62
45357;BME280;31092;51.924;21.448;2023-05-01T09:02:28;100829.81;;;15.30;100.00
45357;BME280;31092;51.924;21.448;2023-05-01T09:04:55;100830.09;;;15.59;100.00
45357;BME280;31092;51.924;21.448;2023-05-01T09:07:20;100825.19;;;15.92;100.00
45357;BME280;31092;51.924;21.448;2023-05-01T09:09:46;100824.63;;;16.26;100.00
45357;BME280;31092;51.924;21.448;2023-05-01T09:14:37;100826.97;;;15.99;95.53
45357;BME280;31092;51.924;21.448;2023-05-01T09:17:02;100818.59;;;15.86;94.94
45357;BME280;31092;51.924;21.448;2023-05-01T09:19:28;100820.03;;;16.12;94.91
45357;BME280;31092;51.924;21.448;2023-05-01T09:21:53;100813.19;;;16.67;94.52
45357;BME280;31092;51.924;21.448;2023-05-01T09:24:20;100812.34;;;17.03;94.57
45357;BME280;31092;51.924;21.448;2023-05-01T09:26:47;100803.13;;;17.25;92.07
45357;BME280;31092;51.924;21.448;2023-05-01T09:29:54;100801.13;;;17.34;93.25
45357;BME280;31092;51.924;21.448;2023-05-01T09:32:11;100810.28;;;17.26;92.70
45357;BME280;31092;51.924;21.448;2023-05-01T09:34:37;100799.13;;;16.78;89.09
45357;BME280;31092;51.924;21.448;2023-05-01T09:37:02;100799.34;;;16.62;89.50
45357;BME280;31092;51.924;21.448;2023-05-01T09:39:28;100794.41;;;16.72;90.71
45357;BME280;31092;51.924;21.448;2023-05-01T09:41:53;100791.31;;;17.11;92.36
45357;BME280;31092;51.924;21.448;2023-05-01T09:44:18;100788.38;;;17.13;91.47
45357;BME280;31092;51.924;21.448;2023-05-01T09:46:44;100785.63;;;17.34;91.82
45357;BME280;31092;51.924;21.448;2023-05-01T09:49:09;100779.47;;;17.47;90.69
45357;BME280;31092;51.924;21.448;2023-05-01T09:51:35;100777.34;;;17.21;86.94
45357;BME280;31092;51.924;21.448;2023-05-01T09:54:02;100785.25;;;16.37;84.02
45357;BME280;31092;51.924;21.448;2023-05-01T09:56:29;100783.84;;;16.26;86.84
45357;BME280;31092;51.924;21.448;2023-05-01T09:58:56;100777.00;;;16.66;91.04
45357;BME280;31092;51.924;21.448;2023-05-01T10:01:41;100779.06;;;17.01;88.76
45357;BME280;31092;51.924;21.448;2023-05-01T10:04:06;100776.53;;;16.63;85.13
45357;BME280;31092;51.924;21.448;2023-05-01T10:06:33;100770.38;;;16.90;87.96
45357;BME280;31092;51.924;21.448;2023-05-01T10:08:59;100767.81;;;17.10;85.91
45357;BME280;31092;51.924;21.448;2023-05-01T10:11:24;100767.19;;;17.30;86.21
45357;BME280;31092;51.924;21.448;2023-05-01T10:16:47;100763.75;;;16.99;84.01
45357;BME280;31092;51.924;21.448;2023-05-01T10:19:13;100755.91;;;17.33;84.17
45357;BME280;31092;51.924;21.448;2023-05-01T10:21:40;100752.47;;;17.52;83.53
45357;BME280;31092;51.924;21.448;2023-05-01T10:24:06;100753.50;;;17.51;78.56
45357;BME280;31092;51.924;21.448;2023-05-01T10:26:33;100753.06;;;17.19;75.91
45357;BME280;31092;51.924;21.448;2023-05-01T10:28:59;100755.25;;;17.09;76.94
45357;BME280;31092;51.924;21.448;2023-05-01T10:31:25;100746.19;;;17.52;78.40
45357;BME280;31092;51.924;21.448;2023-05-01T10:33:51;100740.34;;;17.83;78.10
45357;BME280;31092;51.924;21.448;2023-05-01T10:36:19;100750.78;;;17.79;74.41
45357;BME280;31092;51.924;21.448;2023-05-01T10:38:46;100746.56;;;17.77;73.66
45357;BME280;31092;51.924;21.448;2023-05-01T10:41:15;100749.09;;;17.78;72.75
45357;BME280;31092;51.924;21.448;2023-05-01T10:43:43;100737.22;;;17.86;70.92
45357;BME280;31092;51.924;21.448;2023-05-01T10:51:15;100739.41;;;18.04;66.15
45357;BME280;31092;51.924;21.448;2023-05-01T10:53:42;100729.31;;;17.69;61.72
45357;BME280;31092;51.924;21.448;2023-05-01T11:03:59;100713.31;;;17.88;69.04
45357;BME280;31092;51.924;21.448;2023-05-01T11:06:25;100720.88;;;17.86;69.03
45357;BME280;31092;51.924;21.448;2023-05-01T11:08:51;100712.25;;;17.89;66.28
45357;BME280;31092;51.924;21.448;2023-05-01T11:19:03;100698.41;;;17.84;61.10
45357;BME280;31092;51.924;21.448;2023-05-01T11:21:28;100697.78;;;17.88;66.08
45357;BME280;31092;51.924;21.448;2023-05-01T11:23:54;100697.97;;;17.80;64.00
45357;BME280;31092;51.924;21.448;2023-05-01T11:26:19;100705.31;;;17.52;62.41
45357;BME280;31092;51.924;21.448;2023-05-01T11:28:47;100695.19;;;17.39;61.95
45357;BME280;31092;51.924;21.448;2023-05-01T11:31:16;100679.81;;;17.59;67.74
45357;BME280;31092;51.924;21.448;2023-05-01T11:33:41;100685.97;;;17.75;66.13
45357;BME280;31092;51.924;21.448;2023-05-01T11:36:06;100677.47;;;17.91;66.90
45357;BME280;31092;51.924;21.448;2023-05-01T11:38:32;100690.09;;;17.99;63.45
45357;BME280;31092;51.924;21.448;2023-05-01T11:40:59;100680.25;;;17.63;57.92
45357;BME280;31092;51.924;21.448;2023-05-01T11:43:25;100682.38;;;17.33;57.10
45357;BME280;31092;51.924;21.448;2023-05-01T11:45:51;100673.16;;;17.06;56.79
45357;BME280;31092;51.924;21.448;2023-05-01T11:48:18;100675.91;;;17.06;59.12
45357;BME280;31092;51.924;21.448;2023-05-01T11:50:44;100661.22;;;17.35;61.12
45357;BME280;31092;51.924;21.448;2023-05-01T11:53:11;100662.41;;;17.60;62.79
45357;BME280;31092;51.924;21.448;2023-05-01T11:55:37;100661.09;;;17.84;65.03
45357;BME280;31092;51.924;21.448;2023-05-01T11:58:02;100662.03;;;18.05;66.57
45357;BME280;31092;51.924;21.448;2023-05-01T12:00:32;100655.34;;;18.21;67.42
45357;BME280;31092;51.924;21.448;2023-05-01T12:03:01;100653.72;;;18.33;66.81
45357;BME280;31092;51.924;21.448;2023-05-01T12:05:27;100656.41;;;18.19;63.21
45357;BME280;31092;51.924;21.448;2023-05-01T12:10:37;100648.56;;;18.03;61.30
45357;BME280;31092;51.924;21.448;2023-05-01T12:13:04;100642.84;;;17.85;59.19
45357;BME280;31092;51.924;21.448;2023-05-01T12:15:30;100641.41;;;17.82;60.65
45357;BME280;31092;51.924;21.448;2023-05-01T12:17:56;100658.19;;;17.86;60.27
45357;BME280;31092;51.924;21.448;2023-05-01T12:20:35;100641.22;;;17.90;61.24
45357;BME280;31092;51.924;21.448;2023-05-01T12:23:02;100642.25;;;17.96;60.43
45357;BME280;31092;51.924;21.448;2023-05-01T12:25:29;100637.69;;;18.03;61.19
45357;BME280;31092;51.924;21.448;2023-05-01T12:27:56;100637.28;;;18.06;59.26
45357;BME280;31092;51.924;21.448;2023-05-01T12:30:24;100640.44;;;18.10;60.98
45357;BME280;31092;51.924;21.448;2023-05-01T12:32:51;100629.94;;;18.07;59.09
45357;BME280;31092;51.924;21.448;2023-05-01T12:35:34;100623.22;;;18.03;58.86
45357;BME280;31092;51.924;21.448;2023-05-01T12:38:04;100625.47;;;17.92;57.81
45357;BME280;31092;51.924;21.448;2023-05-01T12:40:34;100617.00;;;17.74;51.60
45357;BME280;31092;51.924;21.448;2023-05-01T12:42:59;100616.78;;;17.69;51.61
45357;BME280;31092;51.924;21.448;2023-05-01T12:45:25;100609.84;;;17.66;52.00
45357;BME280;31092;51.924;21.448;2023-05-01T12:47:51;100610.72;;;17.74;54.82
45357;BME280;31092;51.924;21.448;2023-05-01T12:50:17;100607.47;;;17.91;57.78
45357;BME280;31092;51.924;21.448;2023-05-01T12:52:42;100598.44;;;17.91;55.99
45357;BME280;31092;51.924;21.448;2023-05-01T12:55:08;100604.94;;;17.83;55.28
45357;BME280;31092;51.924;21.448;2023-05-01T12:57:33;100596.38;;;17.93;56.63
45357;BME280;31092;51.924;21.448;2023-05-01T12:59:59;100595.13;;;18.09;56.91
45357;BME280;31092;51.924;21.448;2023-05-01T13:02:28;100592.03;;;18.25;57.47
45357;BME280;31092;51.924;21.448;2023-05-01T13:05:04;100599.56;;;18.23;55.00
45357;BME280;31092;51.924;21.448;2023-05-01T13:07:30;100590.97;;;18.19;54.73
45357;BME280;31092;51.924;21.448;2023-05-01T13:09:56;100589.50;;;18.30;56.10
45357;BME280;31092;51.924;21.448;2023-05-01T13:12:22;100585.72;;;18.25;54.45
45357;BME280;31092;51.924;21.448;2023-05-01T13:14:48;100583.00;;;18.31;56.17